Time;durP1;ratioP1;P1;durP2;ratioP2;P2;SDS_P1;SDS_P2;PMS_P1;PMS_P2;Temp;Humidity;BMP_temperature;BMP_pressure;BME280_temperature;BME280_humidity;BME280_pressure;Samples;Min_cycle;Max_cycle;Signal;HPM_P1;HPM_P2
2021/12/15 00:01:23;;;;;;;;;;;4.50;99.90;;;;;;5051583;28;19978;-79
2021/12/15 00:03:50;;;;;;;;;;;4.50;99.90;;;;;;5049787;28;19931;-79
2021/12/15 00:06:18;;;;;;;;;;;4.50;99.90;;;;;;5050910;28;19924;-79
2021/12/15 00:08:47;;;;;;;;;;;4.50;99.90;;;;;;5037138;28;20545;-80
2021/12/15 00:11:15;;;;;;;;;;;4.40;99.90;;;;;;5049804;28;19925;-79
2021/12/15 00:13:42;;;;;;;;;;;4.40;99.90;;;;;;5050387;28;19925;-79
2021/12/15 00:16:09;;;;;;;;;;;4.40;99.90;;;;;;5044006;28;19925;-79
2021/12/15 00:18:41;;;;;;;;;;;4.30;99.90;;;;;;5061472;28;19928;-79
2021/12/15 00:21:09;;;;;;;;;;;4.30;99.90;;;;;;5046187;28;19941;-79
2021/12/15 00:23:37;;;;;;;;;;;4.30;99.90;;;;;;5052505;28;19925;-80
2021/12/15 00:26:04;;;;;;;;;;;4.30;99.90;;;;;;5047312;28;20012;-80
2021/12/15 00:28:33;;;;;;;;;;;4.30;99.90;;;;;;5045844;28;19987;-79
2021/12/15 00:31:00;;;;;;;;;;;4.30;99.90;;;;;;5036157;28;20020;-79
2021/12/15 00:33:27;;;;;;;;;;;4.30;99.90;;;;;;5049446;28;20001;-79
2021/12/15 00:35:55;;;;;;;;;;;4.30;99.90;;;;;;5046701;28;19942;-79
2021/12/15 00:38:28;;;;;;;;;;;4.30;99.90;;;;;;5038434;28;20020;-80
2021/12/15 00:40:55;;;;;;;;;;;4.30;99.90;;;;;;5047369;28;19925;-79
2021/12/15 00:43:25;;;;;;;;;;;4.20;99.90;;;;;;5048281;28;19925;-80
2021/12/15 00:45:51;;;;;;;;;;;4.20;99.90;;;;;;5047705;28;20014;-79
2021/12/15 00:48:18;;;;;;;;;;;4.20;99.90;;;;;;5048957;28;19925;-79
2021/12/15 00:50:46;;;;;;;;;;;4.20;99.90;;;;;;5048400;28;20371;-79
2021/12/15 00:53:12;;;;;;;;;;;4.20;99.90;;;;;;5050827;28;19929;-79
2021/12/15 00:55:39;;;;;;;;;;;4.20;99.90;;;;;;5048776;28;19933;-80
2021/12/15 00:58:06;;;;;;;;;;;4.20;99.90;;;;;;5046305;28;19925;-80
2021/12/15 01:00:37;;;;;;;;;;;4.20;99.90;;;;;;5042412;28;19937;-80
2021/12/15 01:03:07;;;;;;;;;;;4.30;99.90;;;;;;5044190;28;19926;-80
2021/12/15 01:05:36;;;;;;;;;;;4.20;99.90;;;;;;5063032;28;19964;-81
2021/12/15 01:08:05;;;;;;;;;;;4.20;99.90;;;;;;5049748;28;19925;-80
2021/12/15 01:10:51;;;;;;;;;;;4.20;99.90;;;;;;5050648;28;20010;-80
2021/12/15 01:21:36;;;;;;;;;;;4.30;99.90;;;;;;5042223;28;19931;-78
2021/12/15 01:24:03;;;;;;;;;;;4.30;99.90;;;;;;5049945;28;19925;-78
2021/12/15 01:26:30;;;;;;;;;;;4.30;99.90;;;;;;5047653;28;20027;-79
2021/12/15 01:28:57;;;;;;;;;;;4.30;99.90;;;;;;5049548;28;19932;-79
2021/12/15 01:31:24;;;;;;;;;;;4.30;99.90;;;;;;5045453;28;19929;-78
2021/12/15 01:33:50;;;;;;;;;;;4.30;99.90;;;;;;5054486;28;19925;-79
2021/12/15 01:36:17;;;;;;;;;;;4.30;99.90;;;;;;5049882;28;19931;-79
2021/12/15 01:38:45;;;;;;;;;;;4.30;99.90;;;;;;5042457;28;20498;-79
2021/12/15 01:41:19;;;;;;;;;;;4.30;99.90;;;;;;5046751;28;19931;-80
2021/12/15 01:49:41;;;;;;;;;;;4.30;99.90;;;;;;5088102;28;19928;-79
2021/12/15 01:52:19;;;;;;;;;;;4.30;99.90;;;;;;5086611;28;19928;-79
2021/12/15 01:54:54;;;;;;;;;;;4.30;99.90;;;;;;5073954;28;19935;-79
2021/12/15 01:57:21;;;;;;;;;;;4.30;99.90;;;;;;5075000;28;20010;-79
2021/12/15 01:59:48;;;;;;;;;;;4.30;99.90;;;;;;5076126;28;19959;-80
2021/12/15 02:02:16;;;;;;;;;;;4.30;99.90;;;;;;5089588;28;20013;-80
2021/12/15 02:04:43;;;;;;;;;;;4.30;99.90;;;;;;5091025;28;19932;-80
2021/12/15 02:07:14;;;;;;;;;;;4.30;99.90;;;;;;5074199;28;20032;-80
2021/12/15 02:10:01;;;;;;;;;;;4.30;99.90;;;;;;5090242;28;19951;-80
2021/12/15 02:12:48;;;;;;;;;;;4.30;99.90;;;;;;5068895;28;19946;-79
2021/12/15 02:15:16;;;;;;;;;;;4.30;99.90;;;;;;5082837;28;19924;-80
2021/12/15 02:17:43;;;;;;;;;;;4.30;99.90;;;;;;5086858;28;19924;-80
2021/12/15 02:20:11;;;;;;;;;;;4.30;99.90;;;;;;5089223;28;19947;-80
2021/12/15 02:22:38;;;;;;;;;;;4.30;99.90;;;;;;5098062;28;20014;-80
2021/12/15 02:25:09;;;;;;;;;;;4.30;99.90;;;;;;5054370;28;19950;-79
2021/12/15 02:27:35;;;;;;;;;;;4.30;99.90;;;;;;5048471;28;19925;-79
2021/12/15 02:30:18;;;;;;;;;;;4.30;99.90;;;;;;5045028;28;20059;-79
2021/12/15 02:33:03;;;;;;;;;;;4.30;99.90;;;;;;5054200;28;20312;-79
2021/12/15 02:38:18;;;;;;;;;;;4.30;99.90;;;;;;5056593;28;19942;-80
2021/12/15 02:40:45;;;;;;;;;;;4.30;99.90;;;;;;5050462;28;19925;-79
2021/12/15 02:43:12;;;;;;;;;;;4.30;99.90;;;;;;5050717;28;20371;-79
2021/12/15 02:45:39;;;;;;;;;;;4.20;99.90;;;;;;5048615;28;19931;-79
2021/12/15 02:48:06;;;;;;;;;;;4.30;99.90;;;;;;5040923;28;20012;-79
2021/12/15 02:50:34;;;;;;;;;;;4.30;99.90;;;;;;5047732;28;19932;-79
2021/12/15 02:53:00;;;;;;;;;;;4.30;99.90;;;;;;5044762;28;20014;-79
2021/12/15 02:55:28;;;;;;;;;;;4.30;99.90;;;;;;5034208;28;19925;-79
2021/12/15 02:57:55;;;;;;;;;;;4.30;99.90;;;;;;5040370;28;19929;-79
2021/12/15 03:00:26;;;;;;;;;;;4.30;99.90;;;;;;5049319;28;19924;-80
2021/12/15 03:03:45;;;;;;;;;;;4.30;99.90;;;;;;5049334;28;20333;-79
2021/12/15 03:06:18;;;;;;;;;;;4.30;99.90;;;;;;5045460;28;19925;-80
2021/12/15 03:16:43;;;;;;;;;;;4.30;99.90;;;;;;5046730;28;19931;-80
2021/12/15 03:19:13;;;;;;;;;;;4.30;99.90;;;;;;5041531;28;19937;-79
2021/12/15 03:21:43;;;;;;;;;;;4.30;99.90;;;;;;5043050;28;19925;-80
2021/12/15 03:24:14;;;;;;;;;;;4.30;99.90;;;;;;5048130;28;19925;-80
2021/12/15 03:26:56;;;;;;;;;;;4.30;99.90;;;;;;5047321;28;20775;-79
2021/12/15 03:37:26;;;;;;;;;;;4.20;99.90;;;;;;5044745;28;20265;-79
2021/12/15 03:39:53;;;;;;;;;;;4.20;99.90;;;;;;5043112;28;19924;-79
2021/12/15 03:42:25;;;;;;;;;;;4.20;99.90;;;;;;5043142;28;19925;-79
2021/12/15 03:44:52;;;;;;;;;;;4.20;99.90;;;;;;5039583;28;19945;-79
2021/12/15 03:47:22;;;;;;;;;;;4.20;99.90;;;;;;5047204;28;20389;-79
2021/12/15 03:49:49;;;;;;;;;;;4.30;99.90;;;;;;5046111;28;19928;-79
2021/12/15 03:52:18;;;;;;;;;;;4.30;99.90;;;;;;5035773;28;20184;-79
2021/12/15 03:54:46;;;;;;;;;;;4.30;99.90;;;;;;5035517;28;19925;-79
2021/12/15 03:57:13;;;;;;;;;;;4.30;99.90;;;;;;5047856;28;19925;-79
2021/12/15 03:59:42;;;;;;;;;;;4.30;99.90;;;;;;5060657;28;19928;-79
2021/12/15 04:02:11;;;;;;;;;;;4.20;99.90;;;;;;5050087;28;20533;-79
2021/12/15 04:04:41;;;;;;;;;;;4.20;99.90;;;;;;5046420;28;19936;-79
2021/12/15 04:07:09;;;;;;;;;;;4.20;99.90;;;;;;5049139;28;20767;-80
2021/12/15 04:09:36;;;;;;;;;;;4.20;99.90;;;;;;5050355;28;19978;-80
2021/12/15 04:12:03;;;;;;;;;;;4.20;99.90;;;;;;5054062;28;19935;-80
2021/12/15 04:14:43;;;;;;;;;;;4.20;99.90;;;;;;5054361;28;20308;-80
2021/12/15 04:17:26;;;;;;;;;;;4.20;99.90;;;;;;5040401;28;20030;-80
2021/12/15 04:20:00;;;;;;;;;;;4.20;99.90;;;;;;5050452;28;19929;-80
2021/12/15 04:22:30;;;;;;;;;;;4.20;99.90;;;;;;5048135;28;20015;-79
2021/12/15 04:25:04;;;;;;;;;;;4.20;99.90;;;;;;5049548;28;20023;-79
2021/12/15 04:27:31;;;;;;;;;;;4.20;99.90;;;;;;5050951;28;20023;-80
2021/12/15 04:29:57;;;;;;;;;;;4.20;99.90;;;;;;5049107;28;19932;-78
2021/12/15 04:32:30;;;;;;;;;;;4.20;99.90;;;;;;5067525;28;20037;-79
2021/12/15 04:34:57;;;;;;;;;;;4.20;99.90;;;;;;5042800;28;19931;-79
2021/12/15 04:37:24;;;;;;;;;;;4.10;99.90;;;;;;5047780;28;19925;-79
2021/12/15 04:39:51;;;;;;;;;;;4.10;99.90;;;;;;5046934;28;19925;-79
2021/12/15 04:42:19;;;;;;;;;;;4.10;99.90;;;;;;5048594;28;19936;-79
2021/12/15 04:44:46;;;;;;;;;;;4.10;99.90;;;;;;5046974;28;19930;-79
2021/12/15 04:47:13;;;;;;;;;;;4.00;99.90;;;;;;5043920;28;19932;-79
2021/12/15 04:49:42;;;;;;;;;;;4.00;99.90;;;;;;5048821;28;20306;-79
2021/12/15 04:52:10;;;;;;;;;;;4.00;99.90;;;;;;5046115;28;19975;-79
2021/12/15 04:54:37;;;;;;;;;;;4.00;99.90;;;;;;5049286;28;19939;-79
2021/12/15 04:57:07;;;;;;;;;;;4.00;99.90;;;;;;5051610;28;19931;-79
2021/12/15 04:59:34;;;;;;;;;;;4.00;99.90;;;;;;5049598;28;20290;-79
2021/12/15 05:02:01;;;;;;;;;;;4.00;99.90;;;;;;5049588;28;19941;-79
2021/12/15 05:04:28;;;;;;;;;;;4.00;99.90;;;;;;5059041;28;19970;-79
2021/12/15 05:06:55;;;;;;;;;;;4.00;99.90;;;;;;5049454;28;19925;-79
2021/12/15 05:09:22;;;;;;;;;;;3.90;99.90;;;;;;5060875;28;20460;-79
2021/12/15 05:11:50;;;;;;;;;;;4.00;99.90;;;;;;5053047;28;20297;-79
2021/12/15 05:14:20;;;;;;;;;;;4.00;99.90;;;;;;5046941;28;19928;-79
2021/12/15 05:16:47;;;;;;;;;;;3.90;99.90;;;;;;5048795;28;19931;-79
2021/12/15 05:19:15;;;;;;;;;;;3.90;99.90;;;;;;5056264;28;20027;-79
2021/12/15 05:21:41;;;;;;;;;;;3.90;99.90;;;;;;5050774;28;19924;-79
2021/12/15 05:24:23;;;;;;;;;;;3.90;99.90;;;;;;5052519;28;19931;-79
2021/12/15 05:26:50;;;;;;;;;;;3.90;99.90;;;;;;5052894;28;19941;-79
2021/12/15 05:29:20;;;;;;;;;;;3.90;99.90;;;;;;5053211;28;20398;-80
2021/12/15 05:31:48;;;;;;;;;;;3.90;99.90;;;;;;5049697;28;19928;-79
2021/12/15 05:34:15;;;;;;;;;;;3.90;99.90;;;;;;5051486;28;20079;-79
2021/12/15 05:36:42;;;;;;;;;;;3.90;99.90;;;;;;5050546;28;19947;-79
2021/12/15 05:39:12;;;;;;;;;;;3.90;99.90;;;;;;5052730;28;19925;-78
2021/12/15 05:41:38;;;;;;;;;;;3.90;99.90;;;;;;5048572;28;20152;-78
2021/12/15 05:44:05;;;;;;;;;;;3.90;99.90;;;;;;5048127;28;20004;-78
2021/12/15 05:46:32;;;;;;;;;;;3.90;99.90;;;;;;5042687;28;19989;-79
2021/12/15 05:49:00;;;;;;;;;;;3.90;99.90;;;;;;5050854;28;19971;-78
2021/12/15 05:51:27;;;;;;;;;;;3.80;99.90;;;;;;5051774;28;20042;-78
2021/12/15 05:53:53;;;;;;;;;;;3.80;99.90;;;;;;5050793;28;20433;-79
2021/12/15 05:56:20;;;;;;;;;;;3.80;99.90;;;;;;5049900;28;19925;-78
2021/12/15 05:58:48;;;;;;;;;;;3.80;99.90;;;;;;5048028;28;19982;-79
2021/12/15 06:01:17;;;;;;;;;;;3.80;99.90;;;;;;5048776;28;19925;-78
2021/12/15 06:03:44;;;;;;;;;;;3.80;99.90;;;;;;5052197;28;19937;-78
2021/12/15 06:06:12;;;;;;;;;;;3.90;99.90;;;;;;5046864;28;19931;-78
2021/12/15 06:08:39;;;;;;;;;;;3.80;99.90;;;;;;5060848;28;20011;-79
2021/12/15 06:11:06;;;;;;;;;;;3.80;99.90;;;;;;5044822;28;20322;-79
2021/12/15 06:13:33;;;;;;;;;;;3.80;99.90;;;;;;5042432;28;19925;-78
2021/12/15 06:16:00;;;;;;;;;;;3.80;99.90;;;;;;5052742;28;19995;-78
2021/12/15 06:18:27;;;;;;;;;;;3.70;99.90;;;;;;5042844;28;19941;-78
2021/12/15 06:20:54;;;;;;;;;;;3.80;99.90;;;;;;5064435;28;20011;-78
2021/12/15 06:23:22;;;;;;;;;;;3.80;99.90;;;;;;5050872;28;20144;-78
2021/12/15 06:25:51;;;;;;;;;;;3.80;99.90;;;;;;5050590;28;20007;-78
2021/12/15 06:28:19;;;;;;;;;;;3.80;99.90;;;;;;5048796;28;19925;-78
2021/12/15 06:30:45;;;;;;;;;;;3.90;99.90;;;;;;5036276;28;19932;-78
2021/12/15 06:33:13;;;;;;;;;;;3.90;99.90;;;;;;5053510;28;19925;-78
2021/12/15 06:35:40;;;;;;;;;;;3.90;99.90;;;;;;5046882;28;19942;-79
2021/12/15 06:38:07;;;;;;;;;;;3.90;99.90;;;;;;5050695;28;20069;-78
2021/12/15 06:40:34;;;;;;;;;;;3.90;99.90;;;;;;5070465;28;19996;-78
2021/12/15 06:43:01;;;;;;;;;;;3.90;99.90;;;;;;5077154;28;19960;-78
2021/12/15 06:45:39;;;;;;;;;;;3.90;99.90;;;;;;5070039;28;19968;-80
2021/12/15 06:59:16;;;;;;;;;;;3.90;99.90;;;;;;5046490;28;19974;-79
2021/12/15 07:01:46;;;;;;;;;;;3.90;99.90;;;;;;5054914;28;19931;-79
2021/12/15 07:04:13;;;;;;;;;;;3.90;99.90;;;;;;5057169;28;19925;-79
2021/12/15 07:06:40;;;;;;;;;;;3.90;99.90;;;;;;5040761;28;20003;-79
2021/12/15 07:09:09;;;;;;;;;;;4.00;99.90;;;;;;5035899;28;20007;-79
2021/12/15 07:11:35;;;;;;;;;;;3.90;99.90;;;;;;5052166;28;19924;-79
2021/12/15 07:14:02;;;;;;;;;;;4.00;99.90;;;;;;5047904;28;20410;-79
2021/12/15 07:16:31;;;;;;;;;;;4.00;99.90;;;;;;5048200;28;19975;-79
2021/12/15 07:19:08;;;;;;;;;;;4.00;99.90;;;;;;5054973;28;19925;-79
2021/12/15 07:21:38;;;;;;;;;;;4.00;99.90;;;;;;5053004;28;19939;-80
2021/12/15 07:24:06;;;;;;;;;;;4.00;99.90;;;;;;5049976;28;19925;-79
2021/12/15 07:26:34;;;;;;;;;;;4.00;99.90;;;;;;5061570;28;20002;-80
2021/12/15 07:29:01;;;;;;;;;;;4.00;99.90;;;;;;5039570;28;20020;-80
2021/12/15 07:31:28;;;;;;;;;;;4.00;99.90;;;;;;5049370;28;19968;-79
2021/12/15 07:33:54;;;;;;;;;;;4.10;99.90;;;;;;5052462;28;20028;-79
2021/12/15 07:36:21;;;;;;;;;;;4.10;99.90;;;;;;5048434;28;20020;-79
2021/12/15 07:38:55;;;;;;;;;;;4.10;99.90;;;;;;5044387;28;20028;-80
2021/12/15 07:41:48;;;;;;;;;;;4.10;99.90;;;;;;5051839;28;19931;-80
2021/12/15 07:44:11;;;;;;;;;;;4.10;99.90;;;;;;5052659;28;19925;-79
2021/12/15 07:46:51;;;;;;;;;;;4.20;99.90;;;;;;5052570;28;19964;-79
2021/12/15 07:49:19;;;;;;;;;;;4.20;99.90;;;;;;5047616;28;19938;-80
2021/12/15 07:51:46;;;;;;;;;;;4.30;99.90;;;;;;5053445;28;19952;-80
2021/12/15 07:54:13;;;;;;;;;;;4.30;99.90;;;;;;5051340;28;19931;-79
2021/12/15 07:56:41;;;;;;;;;;;4.30;99.90;;;;;;5043852;28;19951;-79
2021/12/15 07:59:08;;;;;;;;;;;4.40;99.90;;;;;;5051719;28;19931;-79
2021/12/15 08:01:35;;;;;;;;;;;4.30;99.90;;;;;;5049542;28;19956;-79
2021/12/15 08:04:02;;;;;;;;;;;4.40;99.90;;;;;;5047841;28;20000;-80
2021/12/15 08:06:29;;;;;;;;;;;4.40;99.90;;;;;;5049525;28;19988;-79
2021/12/15 08:08:56;;;;;;;;;;;4.40;99.90;;;;;;5050191;28;20023;-79
2021/12/15 08:11:23;;;;;;;;;;;4.40;99.90;;;;;;5046628;28;20188;-79
2021/12/15 08:13:53;;;;;;;;;;;4.50;99.90;;;;;;5045676;28;19925;-80
2021/12/15 08:16:20;;;;;;;;;;;4.60;99.90;;;;;;5048596;28;19932;-79
2021/12/15 08:18:47;;;;;;;;;;;4.60;99.90;;;;;;5063969;28;19933;-80
2021/12/15 08:21:13;;;;;;;;;;;4.60;99.90;;;;;;5048181;28;19931;-80
2021/12/15 08:23:40;;;;;;;;;;;4.60;99.90;;;;;;5045742;28;19943;-79
2021/12/15 08:26:07;;;;;;;;;;;4.70;99.90;;;;;;5049276;28;19940;-80
2021/12/15 08:28:36;;;;;;;;;;;4.70;99.90;;;;;;5044680;28;19983;-80
2021/12/15 08:31:04;;;;;;;;;;;4.70;99.90;;;;;;5062532;28;20272;-79
2021/12/15 08:33:32;;;;;;;;;;;4.70;99.90;;;;;;5049164;28;20659;-80
2021/12/15 08:36:04;;;;;;;;;;;4.80;99.90;;;;;;5053626;28;21934;-78
2021/12/15 08:38:33;;;;;;;;;;;4.80;99.90;;;;;;5059829;28;19990;-79
2021/12/15 08:41:04;;;;;;;;;;;4.80;99.90;;;;;;5045801;28;19925;-79
2021/12/15 08:43:31;;;;;;;;;;;4.90;99.90;;;;;;5035522;28;19925;-79
2021/12/15 08:46:01;;;;;;;;;;;4.90;99.90;;;;;;5038226;28;19931;-79
2021/12/15 08:48:28;;;;;;;;;;;4.90;99.90;;;;;;5044669;28;19924;-79
2021/12/15 08:50:55;;;;;;;;;;;5.00;99.90;;;;;;5047159;28;20016;-80
2021/12/15 08:53:25;;;;;;;;;;;5.10;99.90;;;;;;5052354;28;19931;-80
2021/12/15 08:55:52;;;;;;;;;;;5.20;99.90;;;;;;5050313;28;20331;-81
2021/12/15 08:58:20;;;;;;;;;;;5.20;99.90;;;;;;5049428;28;19925;-80
2021/12/15 09:00:50;;;;;;;;;;;5.30;99.90;;;;;;5050072;28;20322;-80
2021/12/15 09:03:18;;;;;;;;;;;5.50;99.90;;;;;;5049211;28;19929;-80
2021/12/15 09:05:47;;;;;;;;;;;5.70;99.90;;;;;;5051128;28;19925;-80
2021/12/15 09:08:14;;;;;;;;;;;5.80;99.90;;;;;;5049395;28;19925;-81
2021/12/15 09:10:43;;;;;;;;;;;5.80;99.90;;;;;;5051403;28;19929;-81
2021/12/15 09:13:11;;;;;;;;;;;5.80;99.90;;;;;;5045827;28;20186;-80
2021/12/15 09:15:39;;;;;;;;;;;5.80;99.90;;;;;;5038630;28;19926;-80
2021/12/15 09:18:06;;;;;;;;;;;5.70;99.90;;;;;;5046950;28;19925;-81
2021/12/15 09:20:34;;;;;;;;;;;5.80;99.90;;;;;;5042708;28;20302;-81
2021/12/15 09:23:02;;;;;;;;;;;5.90;99.90;;;;;;5052693;28;19929;-78
2021/12/15 09:25:29;;;;;;;;;;;6.00;99.90;;;;;;5047575;28;19925;-79
2021/12/15 09:27:59;;;;;;;;;;;6.00;99.90;;;;;;5049499;28;19935;-79
2021/12/15 09:30:27;;;;;;;;;;;6.00;99.90;;;;;;5047955;28;19925;-79
2021/12/15 09:32:54;;;;;;;;;;;6.00;99.90;;;;;;5048164;28;20433;-77
2021/12/15 09:35:22;;;;;;;;;;;6.00;99.90;;;;;;5046441;28;19959;-79
2021/12/15 09:37:49;;;;;;;;;;;6.00;99.90;;;;;;5051882;28;19945;-81
2021/12/15 09:40:17;;;;;;;;;;;6.20;99.90;;;;;;5044446;28;20042;-81
2021/12/15 09:42:44;;;;;;;;;;;6.20;99.90;;;;;;5048285;28;20375;-81
2021/12/15 09:45:31;;;;;;;;;;;6.30;99.90;;;;;;5046381;28;19933;-81
2021/12/15 09:48:17;;;;;;;;;;;6.40;99.90;;;;;;5048068;28;19943;-81
2021/12/15 10:04:32;;;;;;;;;;;7.50;99.90;;;;;;5054847;28;20315;-81
2021/12/15 10:18:12;;;;;;;;;;;7.50;99.90;;;;;;5047046;28;19929;-81
2021/12/15 10:20:39;;;;;;;;;;;7.30;99.90;;;;;;5044201;28;19929;-81
2021/12/15 10:23:10;;;;;;;;;;;7.30;99.90;;;;;;5045280;28;19925;-81
2021/12/15 10:25:43;;;;;;;;;;;7.20;99.90;;;;;;5050306;28;19980;-81
2021/12/15 10:28:11;;;;;;;;;;;7.30;99.90;;;;;;5044945;28;19924;-81
2021/12/15 10:30:42;;;;;;;;;;;7.40;99.90;;;;;;5043113;28;19929;-81
2021/12/15 10:33:12;;;;;;;;;;;7.40;99.90;;;;;;5043411;28;19931;-81
2021/12/15 10:35:42;;;;;;;;;;;7.60;99.90;;;;;;5047345;28;20310;-81
2021/12/15 10:38:12;;;;;;;;;;;7.70;99.90;;;;;;5044904;28;19925;-81
2021/12/15 10:41:02;;;;;;;;;;;7.80;99.90;;;;;;5048040;28;19929;-81
2021/12/15 10:43:32;;;;;;;;;;;8.00;99.90;;;;;;5049098;28;20023;-81
2021/12/15 10:46:00;;;;;;;;;;;8.10;99.90;;;;;;5047456;28;20020;-81
2021/12/15 10:48:36;;;;;;;;;;;8.20;99.90;;;;;;5058495;28;20306;-81
2021/12/15 10:51:16;;;;;;;;;;;8.00;99.90;;;;;;5065467;28;19975;-81
2021/12/15 10:53:43;;;;;;;;;;;8.00;99.90;;;;;;5055665;28;19942;-81
2021/12/15 10:56:11;;;;;;;;;;;8.00;99.90;;;;;;5039021;28;19936;-81
2021/12/15 10:58:43;;;;;;;;;;;8.10;99.90;;;;;;5053303;28;20016;-81
2021/12/15 11:01:28;;;;;;;;;;;8.20;99.90;;;;;;5057713;28;20023;-80
2021/12/15 11:03:55;;;;;;;;;;;8.40;99.90;;;;;;5047314;28;20145;-81
2021/12/15 11:06:27;;;;;;;;;;;8.50;99.90;;;;;;5057837;28;19938;-81
2021/12/15 11:09:13;;;;;;;;;;;8.60;99.90;;;;;;5051281;28;19924;-81
2021/12/15 11:12:00;;;;;;;;;;;8.60;99.90;;;;;;5052191;28;19929;-81
2021/12/15 11:14:32;;;;;;;;;;;8.70;99.90;;;;;;5049674;28;19932;-81
2021/12/15 11:17:08;;;;;;;;;;;8.90;99.90;;;;;;5060603;28;19981;-81
2021/12/15 11:19:39;;;;;;;;;;;9.00;99.90;;;;;;5054281;28;19940;-80
2021/12/15 11:22:27;;;;;;;;;;;9.20;99.90;;;;;;5054177;28;19936;-81
2021/12/15 11:24:54;;;;;;;;;;;9.20;99.90;;;;;;5051841;28;19956;-81
2021/12/15 11:27:20;;;;;;;;;;;9.30;99.90;;;;;;5044419;28;20465;-80
2021/12/15 11:29:47;;;;;;;;;;;9.30;99.90;;;;;;5054209;28;19929;-80
2021/12/15 11:32:33;;;;;;;;;;;9.20;99.90;;;;;;5047240;28;19975;-79
2021/12/15 11:35:07;;;;;;;;;;;9.10;99.90;;;;;;5041867;28;19924;-80
2021/12/15 11:37:55;;;;;;;;;;;9.10;99.90;;;;;;5049559;28;20413;-80
2021/12/15 11:40:24;;;;;;;;;;;8.90;99.90;;;;;;5048035;28;20007;-80
2021/12/15 11:42:51;;;;;;;;;;;8.60;99.90;;;;;;5049944;28;19929;-80
2021/12/15 11:45:18;;;;;;;;;;;8.40;99.90;;;;;;5042368;28;19955;-79
2021/12/15 11:47:45;;;;;;;;;;;8.30;99.90;;;;;;5042009;28;19931;-82
2021/12/15 11:50:13;;;;;;;;;;;8.20;99.90;;;;;;5057782;28;20315;-80
2021/12/15 11:52:44;;;;;;;;;;;8.30;99.90;;;;;;5045069;28;20401;-79
2021/12/15 11:55:40;;;;;;;;;;;8.50;99.90;;;;;;5045862;28;20434;-79
2021/12/15 11:58:07;;;;;;;;;;;8.60;99.90;;;;;;5042993;28;19931;-79
2021/12/15 12:00:34;;;;;;;;;;;8.80;99.90;;;;;;5043914;28;19943;-79
2021/12/15 12:03:01;;;;;;;;;;;9.00;99.90;;;;;;5045593;28;19929;-80
2021/12/15 12:05:32;;;;;;;;;;;9.20;99.90;;;;;;5040887;28;19943;-79
2021/12/15 12:08:00;;;;;;;;;;;9.20;99.90;;;;;;5042116;28;20428;-82
2021/12/15 12:10:47;;;;;;;;;;;9.40;99.90;;;;;;5047125;28;20024;-82
2021/12/15 12:13:20;;;;;;;;;;;9.60;99.90;;;;;;5045835;28;20276;-80
2021/12/15 12:15:50;;;;;;;;;;;9.70;99.90;;;;;;5047250;28;19930;-80
2021/12/15 12:18:21;;;;;;;;;;;9.60;99.90;;;;;;5044493;28;20545;-80
2021/12/15 12:20:50;;;;;;;;;;;9.60;99.90;;;;;;5045394;28;20304;-80
2021/12/15 12:23:21;;;;;;;;;;;9.80;99.90;;;;;;5039517;28;19925;-81
2021/12/15 12:25:50;;;;;;;;;;;9.90;99.90;;;;;;5040832;28;19979;-80
2021/12/15 12:28:19;;;;;;;;;;;9.80;99.90;;;;;;5041928;28;19931;-80
2021/12/15 12:30:48;;;;;;;;;;;9.60;99.90;;;;;;5044074;28;19924;-80
2021/12/15 12:33:17;;;;;;;;;;;9.50;99.90;;;;;;5041605;28;19936;-80
2021/12/15 12:35:48;;;;;;;;;;;9.50;99.90;;;;;;5046709;28;19977;-80
2021/12/15 12:38:22;;;;;;;;;;;9.50;99.90;;;;;;5048486;28;19924;-80
2021/12/15 12:40:54;;;;;;;;;;;9.50;99.90;;;;;;5047054;28;19932;-80
2021/12/15 12:43:22;;;;;;;;;;;9.40;99.90;;;;;;5038819;28;19936;-80
2021/12/15 12:46:16;;;;;;;;;;;9.20;99.90;;;;;;5048772;28;19942;-79
2021/12/15 12:49:17;;;;;;;;;;;9.30;99.90;;;;;;5043826;28;19936;-79
2021/12/15 13:00:48;;;;;;;;;;;9.20;99.90;;;;;;5035781;28;19972;-80
2021/12/15 13:03:19;;;;;;;;;;;9.10;99.90;;;;;;5043812;28;20379;-80
2021/12/15 13:05:51;;;;;;;;;;;9.10;99.90;;;;;;5041457;28;20416;-80
2021/12/15 13:08:29;;;;;;;;;;;9.20;99.90;;;;;;5041605;28;19924;-80
2021/12/15 13:11:05;;;;;;;;;;;9.20;99.90;;;;;;5043901;28;19925;-80
2021/12/15 13:13:51;;;;;;;;;;;9.30;99.90;;;;;;5044324;28;20016;-80
2021/12/15 13:16:37;;;;;;;;;;;9.30;99.90;;;;;;5047148;28;20047;-80
2021/12/15 13:19:13;;;;;;;;;;;9.20;99.90;;;;;;5045270;28;19976;-80
2021/12/15 13:21:41;;;;;;;;;;;9.30;99.90;;;;;;5044957;28;20329;-82
2021/12/15 13:28:39;;;;;;;;;;;9.30;99.90;;;;;;5046120;28;19931;-80
2021/12/15 13:29:58;;;;;;;;;;;9.20;99.90;;;;;;5042203;28;19995;-80
2021/12/15 13:32:26;;;;;;;;;;;9.30;99.90;;;;;;5046483;28;19925;-80
2021/12/15 13:34:56;;;;;;;;;;;9.40;99.90;;;;;;5042546;28;19933;-80
2021/12/15 13:37:57;;;;;;;;;;;9.50;99.90;;;;;;5046541;28;19938;-80
2021/12/15 13:40:42;;;;;;;;;;;9.50;99.90;;;;;;5047036;28;20259;-79
2021/12/15 13:43:29;;;;;;;;;;;9.40;99.90;;;;;;5044498;28;19924;-79
2021/12/15 13:45:55;;;;;;;;;;;9.20;99.90;;;;;;5047814;28;20046;-80
2021/12/15 13:48:40;;;;;;;;;;;9.10;99.90;;;;;;5042875;28;19933;-79
2021/12/15 13:51:07;;;;;;;;;;;8.90;99.90;;;;;;5047534;28;19975;-80
2021/12/15 13:53:34;;;;;;;;;;;8.70;99.90;;;;;;5048146;28;19925;-80
2021/12/15 13:56:01;;;;;;;;;;;8.70;99.90;;;;;;5046110;28;19924;-80
2021/12/15 13:58:30;;;;;;;;;;;8.60;99.90;;;;;;5042425;28;20811;-80
2021/12/15 14:01:00;;;;;;;;;;;8.40;99.90;;;;;;5043028;28;19932;-79
2021/12/15 14:03:48;;;;;;;;;;;8.40;99.90;;;;;;5044089;28;19928;-81
2021/12/15 14:06:21;;;;;;;;;;;8.30;99.90;;;;;;5040691;28;20299;-78
2021/12/15 14:08:49;;;;;;;;;;;8.20;99.90;;;;;;5044816;28;19935;-79
2021/12/15 14:11:30;;;;;;;;;;;8.10;99.90;;;;;;5032112;28;19944;-79
2021/12/15 14:13:58;;;;;;;;;;;8.00;99.90;;;;;;5048005;28;20167;-78
2021/12/15 14:16:48;;;;;;;;;;;7.90;99.90;;;;;;5048807;28;19936;-78
2021/12/15 14:19:21;;;;;;;;;;;7.90;99.90;;;;;;5056349;28;20516;-78
2021/12/15 14:21:49;;;;;;;;;;;7.90;99.90;;;;;;5049849;28;19927;-79
2021/12/15 14:24:17;;;;;;;;;;;7.80;99.90;;;;;;5048042;28;19921;-79
2021/12/15 14:26:44;;;;;;;;;;;7.80;99.90;;;;;;5044184;28;25085;-79
2021/12/15 14:29:19;;;;;;;;;;;7.80;99.90;;;;;;5048439;28;19937;-79
2021/12/15 14:31:47;;;;;;;;;;;7.80;99.90;;;;;;5045337;28;20402;-79
2021/12/15 14:34:16;;;;;;;;;;;7.70;99.90;;;;;;5044547;28;19987;-79
2021/12/15 14:36:50;;;;;;;;;;;7.70;99.90;;;;;;5050175;28;20299;-80
2021/12/15 14:39:19;;;;;;;;;;;7.70;99.90;;;;;;5044475;28;19925;-80
2021/12/15 14:41:48;;;;;;;;;;;7.70;99.90;;;;;;5046278;28;19978;-80
2021/12/15 14:44:20;;;;;;;;;;;7.70;99.90;;;;;;5045809;28;19925;-80
2021/12/15 14:46:50;;;;;;;;;;;7.70;99.90;;;;;;5048548;28;19941;-80
2021/12/15 14:49:23;;;;;;;;;;;7.60;99.90;;;;;;5044311;28;20039;-80
2021/12/15 14:51:51;;;;;;;;;;;7.60;99.90;;;;;;5045560;28;20028;-80
2021/12/15 14:54:19;;;;;;;;;;;7.60;99.90;;;;;;5044302;28;19925;-80
2021/12/15 14:56:46;;;;;;;;;;;7.50;99.90;;;;;;5047604;28;19928;-79
2021/12/15 14:59:14;;;;;;;;;;;7.40;99.90;;;;;;5043681;28;19933;-80
2021/12/15 15:01:42;;;;;;;;;;;7.40;99.90;;;;;;5048673;28;20019;-80
2021/12/15 15:04:10;;;;;;;;;;;7.30;99.90;;;;;;5046391;28;20371;-80
2021/12/15 15:06:37;;;;;;;;;;;7.30;99.90;;;;;;5046782;28;20028;-79
2021/12/15 15:09:08;;;;;;;;;;;7.30;99.90;;;;;;5047455;28;19956;-80
2021/12/15 15:11:34;;;;;;;;;;;7.30;99.90;;;;;;5044783;28;19931;-80
2021/12/15 15:14:01;;;;;;;;;;;7.20;99.90;;;;;;5042160;28;19931;-80
2021/12/15 15:16:34;;;;;;;;;;;7.10;99.90;;;;;;5047955;28;20291;-80
2021/12/15 15:19:17;;;;;;;;;;;7.10;99.90;;;;;;5042034;28;20035;-80
2021/12/15 15:21:44;;;;;;;;;;;7.10;99.90;;;;;;5040217;28;19929;-80
2021/12/15 15:24:29;;;;;;;;;;;7.10;99.90;;;;;;5043408;28;19925;-80
2021/12/15 15:26:57;;;;;;;;;;;7.00;99.90;;;;;;5044641;28;19940;-80
2021/12/15 15:29:28;;;;;;;;;;;7.00;99.90;;;;;;5042970;28;19935;-80
2021/12/15 15:31:55;;;;;;;;;;;7.00;99.90;;;;;;5045613;28;20024;-80
2021/12/15 15:34:25;;;;;;;;;;;6.90;99.90;;;;;;5042234;28;19978;-80
2021/12/15 15:36:52;;;;;;;;;;;6.90;99.90;;;;;;5046408;28;19932;-80
2021/12/15 15:39:19;;;;;;;;;;;6.90;99.90;;;;;;5062278;28;19925;-81
2021/12/15 15:41:47;;;;;;;;;;;6.80;99.90;;;;;;5045385;28;20294;-79
2021/12/15 15:44:14;;;;;;;;;;;6.80;99.90;;;;;;5045109;28;20019;-80
2021/12/15 15:46:46;;;;;;;;;;;6.80;99.90;;;;;;5043981;28;19956;-80
2021/12/15 15:49:14;;;;;;;;;;;6.80;99.90;;;;;;5064589;28;19925;-81
2021/12/15 15:51:42;;;;;;;;;;;6.80;99.90;;;;;;5046205;28;19933;-80
2021/12/15 15:54:11;;;;;;;;;;;6.80;99.90;;;;;;5047217;28;19935;-80
2021/12/15 15:56:53;;;;;;;;;;;6.70;99.90;;;;;;5048179;28;19935;-80
2021/12/15 15:59:20;;;;;;;;;;;6.70;99.90;;;;;;5041143;28;19948;-80
2021/12/15 16:01:48;;;;;;;;;;;6.70;99.90;;;;;;5044377;28;19931;-81
2021/12/15 16:04:16;;;;;;;;;;;6.70;99.90;;;;;;5044591;28;19931;-80
2021/12/15 16:06:46;;;;;;;;;;;6.70;99.90;;;;;;5042243;28;19925;-81
2021/12/15 16:09:16;;;;;;;;;;;6.70;99.90;;;;;;5042097;28;19932;-80
2021/12/15 16:11:46;;;;;;;;;;;6.70;99.90;;;;;;5048012;28;19932;-80